Ambleve, Belgium
Current Conditions -  °F | °C
As of 12:53 PM on Thursday 27 Nov 2014 (Local Time) from EBLB Reporting Station
Broken Clouds Broken Clouds  
Wind Chill:   Ceiling: 4100
Heat Index:   Visibility: 2.6mi
Dew Point:   Wind: 7mph
Humidity: 93%   Direction: 160°SSE
Pressure: 29.71"   Gusts: NA
Location:  50.35°N, 6.17°E
Report Text: EBLB 271153Z AUTO 16006KT 4200 FEW005/// SCT033/// BKN041/// 08/07 Q1006 GRN
Loading
Personal Weather Stations






























Interactive Weather Map New forecast layout! Learn more

10-Day Weather Forecast

Advertisements
Track Severe Weather on mobile